Terminal Aerodrome Forecast
Issued by NWS

Home | Current Version | Previous Version | Text Only | Print | Product List | Glossary On
Versions: 1 2 3 4 5 6 7 8 9 10 11 12 13 14 15 16 17 18 19 20 21 22 23 24 25 26 27
000
FTUS45 KGJT 212343
TAFEGE
TAF
KEGE 212343Z 2200/2224 25007KT P6SM VCSH FEW060 SCT090
      TEMPO 2201/2203 VRB10G25KT 6SM -TSRA BKN050CB OVC080
     FM220300 VRB03KT P6SM VCSH SCT060 BKN090
     FM220800 VRB03KT P6SM VCSH BKN090
     FM221900 27007KT P6SM VCSH SCT050 BKN090
      AMD LTD TO CLD VIS AND WIND 2201/2213=

USA.gov is the U.S. government's official web portal to all federal, state and local government web resources and services.